Atchison, Kansas
Current Conditions -  °F | °C
As of 12:53 PM on Saturday 25 Oct 2014 (Local Time) from KSTJ Reporting Station
Clear Clear  
Wind Chill: 74°   Ceiling: Unl
Heat Index: 74°   Visibility: 10mi
Dew Point: 52°   Wind: 5mph
Humidity: 46%   Direction: 80°E
Pressure: 30.07"   Gusts: NA
Location:  39.56°N, 95.13°W
Report Text: KSTJ 251753Z 08004KT 10SM CLR 23/11 A3007 RMK AO2 SLP180 T02330111 10239 20100 58009
Loading
Personal Weather Stations






























Interactive Weather Map
Tropical Storm Tracking
New forecast layout! Learn more

10-Day Weather Forecast

Advertisements
Track Severe Weather on mobile